Time;durP1;ratioP1;P1;durP2;ratioP2;P2;SDS_P1;SDS_P2;PMS_P1;PMS_P2;Temp;Humidity;BMP_temperature;BMP_pressure;BME280_temperature;BME280_humidity;BME280_pressure;Samples;Min_cycle;Max_cycle;Signal;HPM_P1;HPM_P2
2022/07/06 00:00:47;;;;;;;2.50;1.15;;;17.60;95.90;;;;;;4128043;28;20117;-66
2022/07/06 00:02:47;;;;;;;2.85;1.30;;;17.60;96.00;;;;;;4129224;28;20034;-66
2022/07/06 00:04:48;;;;;;;2.03;1.05;;;17.60;95.70;;;;;;4129392;28;20499;-67
2022/07/06 00:06:49;;;;;;;2.28;1.60;;;17.50;95.90;;;;;;4128595;28;20034;-66
2022/07/06 00:08:50;;;;;;;1.80;1.10;;;17.50;95.90;;;;;;4129441;28;20458;-66
2022/07/06 00:10:50;;;;;;;1.85;1.25;;;17.50;95.40;;;;;;4126285;28;20031;-67
2022/07/06 00:12:51;;;;;;;4.40;1.23;;;17.50;95.10;;;;;;4129254;28;20443;-67
2022/07/06 00:14:52;;;;;;;1.83;1.08;;;17.50;95.00;;;;;;4129403;28;20065;-67
2022/07/06 00:16:52;;;;;;;3.05;1.52;;;17.50;94.90;;;;;;4128477;28;20031;-66
2022/07/06 00:18:53;;;;;;;2.25;1.30;;;17.50;95.70;;;;;;4129139;28;20035;-66
2022/07/06 00:20:53;;;;;;;3.53;1.58;;;17.50;95.50;;;;;;4127797;28;20494;-67
2022/07/06 00:22:54;;;;;;;2.80;1.10;;;17.50;95.60;;;;;;4129016;28;20112;-66
2022/07/06 00:24:54;;;;;;;2.13;1.23;;;17.50;95.20;;;;;;4129034;28;20041;-66
2022/07/06 00:26:55;;;;;;;3.00;1.55;;;17.50;95.50;;;;;;4128310;28;20034;-67
2022/07/06 00:28:56;;;;;;;3.47;1.50;;;17.40;96.00;;;;;;4129008;28;20030;-66
2022/07/06 00:30:56;;;;;;;4.03;1.45;;;17.40;95.90;;;;;;4125559;28;20084;-66
2022/07/06 00:32:58;;;;;;;1.73;1.27;;;17.30;95.70;;;;;;4129363;28;20417;-66
2022/07/06 00:34:58;;;;;;;1.92;1.30;;;17.30;95.30;;;;;;4128978;28;20082;-66
2022/07/06 00:36:59;;;;;;;3.15;1.52;;;17.30;95.40;;;;;;4128549;28;20031;-66
2022/07/06 00:38:59;;;;;;;2.50;1.42;;;17.20;95.70;;;;;;4129005;28;20033;-66
2022/07/06 00:41:00;;;;;;;7.25;1.58;;;17.20;95.50;;;;;;4127991;28;20047;-66
2022/07/06 00:43:01;;;;;;;1.88;1.40;;;17.10;95.80;;;;;;4128954;28;20042;-66
2022/07/06 00:45:01;;;;;;;1.77;1.08;;;17.10;95.80;;;;;;4128891;28;20053;-68
2022/07/06 00:47:03;;;;;;;1.33;1.23;;;17.10;95.70;;;;;;4128351;28;20038;-66
2022/07/06 00:49:04;;;;;;;2.13;1.40;;;17.10;95.80;;;;;;4129145;28;20038;-66
2022/07/06 00:51:04;;;;;;;1.52;1.23;;;17.10;95.50;;;;;;4127502;28;20035;-66
2022/07/06 00:53:08;;;;;;;2.13;1.20;;;17.10;95.40;;;;;;4129034;28;20084;-66
2022/07/06 00:55:09;;;;;;;1.30;1.13;;;17.00;95.40;;;;;;4127973;28;20038;-66
2022/07/06 00:57:10;;;;;;;1.77;1.20;;;17.00;95.10;;;;;;4128754;28;20486;-66
2022/07/06 00:59:11;;;;;;;2.53;1.35;;;17.00;95.30;;;;;;4129208;28;20117;-66
2022/07/06 01:01:11;;;;;;;2.47;1.80;;;17.00;95.20;;;;;;4127329;28;20041;-66
2022/07/06 01:03:12;;;;;;;2.38;1.73;;;16.90;95.30;;;;;;4129038;28;20034;-66
2022/07/06 01:05:14;;;;;;;1.65;1.40;;;16.90;95.70;;;;;;4128308;28;20037;-67
2022/07/06 01:07:15;;;;;;;1.83;1.42;;;16.90;96.00;;;;;;4128986;28;20030;-66
2022/07/06 01:09:16;;;;;;;2.83;1.67;;;16.90;96.00;;;;;;4128926;28;20441;-66
2022/07/06 01:11:19;;;;;;;2.05;1.60;;;16.80;95.80;;;;;;4125720;28;20038;-66
2022/07/06 01:13:20;;;;;;;5.20;2.10;;;16.80;96.70;;;;;;4128872;28;20371;-67
2022/07/06 01:15:23;;;;;;;3.83;1.60;;;16.70;97.30;;;;;;4128131;28;20092;-67
2022/07/06 01:17:25;;;;;;;4.20;2.13;;;16.70;97.00;;;;;;4128263;28;20023;-66
2022/07/06 01:19:25;;;;;;;3.00;1.50;;;16.60;97.40;;;;;;4128429;28;20058;-67
2022/07/06 01:21:26;;;;;;;4.55;1.77;;;16.50;97.30;;;;;;4125252;28;20038;-66
2022/07/06 01:23:26;;;;;;;3.58;1.80;;;16.50;97.30;;;;;;4141084;28;20054;-67
2022/07/06 01:25:27;;;;;;;3.05;1.60;;;16.50;98.00;;;;;;4144220;28;20041;-66
2022/07/06 01:27:27;;;;;;;1.52;1.42;;;16.50;98.10;;;;;;4138735;28;20186;-66
2022/07/06 01:29:29;;;;;;;2.17;1.67;;;16.50;97.50;;;;;;4128680;28;20576;-66
2022/07/06 01:31:29;;;;;;;2.60;1.50;;;16.40;97.70;;;;;;4128380;28;20030;-66
2022/07/06 01:33:30;;;;;;;2.50;1.52;;;16.40;97.90;;;;;;4131533;28;20347;-66
2022/07/06 01:35:34;;;;;;;2.38;1.70;;;16.40;97.90;;;;;;4131226;28;20034;-67
2022/07/06 01:37:35;;;;;;;4.68;2.25;;;16.40;97.90;;;;;;4131650;28;20037;-66
2022/07/06 01:39:36;;;;;;;2.28;1.52;;;16.40;98.20;;;;;;4131448;28;20389;-66
2022/07/06 01:41:37;;;;;;;2.53;1.70;;;16.40;98.40;;;;;;4127888;28;20034;-66
2022/07/06 01:43:38;;;;;;;2.13;1.63;;;16.40;97.80;;;;;;4131370;28;20034;-66
2022/07/06 01:45:39;;;;;;;5.10;1.75;;;16.40;98.50;;;;;;4130719;28;20041;-66
2022/07/06 01:47:39;;;;;;;3.50;1.65;;;16.40;97.30;;;;;;4131426;28;20486;-66
2022/07/06 01:49:40;;;;;;;2.38;1.83;;;16.40;97.10;;;;;;4131298;28;20033;-65
2022/07/06 01:51:40;;;;;;;3.60;1.67;;;16.40;96.80;;;;;;4130087;28;20041;-67
2022/07/06 01:53:41;;;;;;;1.40;1.30;;;16.40;97.40;;;;;;4131172;28;20034;-67
2022/07/06 01:55:42;;;;;;;3.13;1.50;;;16.40;97.40;;;;;;4140832;28;20501;-67
2022/07/06 01:57:42;;;;;;;2.53;1.58;;;16.40;97.20;;;;;;4144865;28;20038;-66
2022/07/06 01:59:43;;;;;;;2.03;1.77;;;16.40;97.20;;;;;;4131443;28;20030;-66
2022/07/06 02:01:43;;;;;;;1.80;1.38;;;16.40;97.30;;;;;;4129952;28;20042;-66
2022/07/06 02:03:44;;;;;;;2.40;1.50;;;16.40;97.30;;;;;;4130972;28;20034;-67
2022/07/06 02:05:45;;;;;;;1.83;1.48;;;16.40;97.00;;;;;;4130620;28;20605;-66
2022/07/06 02:07:45;;;;;;;2.58;1.40;;;16.40;96.40;;;;;;4131022;28;20038;-67
2022/07/06 02:09:46;;;;;;;2.28;1.42;;;16.40;96.50;;;;;;4131075;28;20038;-66
2022/07/06 02:11:46;;;;;;;2.05;1.48;;;16.40;96.70;;;;;;4128243;28;20030;-67
2022/07/06 02:13:47;;;;;;;3.03;1.58;;;16.30;97.20;;;;;;4131201;28;20034;-67
2022/07/06 02:15:48;;;;;;;1.60;1.38;;;16.30;97.10;;;;;;4130236;28;20109;-67
2022/07/06 02:17:48;;;;;;;3.63;1.65;;;16.30;97.30;;;;;;4130820;28;20030;-67
2022/07/06 02:19:49;;;;;;;1.67;1.30;;;16.30;97.10;;;;;;4130801;28;20027;-67
2022/07/06 02:21:49;;;;;;;1.70;1.52;;;16.20;96.90;;;;;;4129603;28;20042;-67
2022/07/06 02:23:50;;;;;;;2.97;1.60;;;16.20;96.60;;;;;;4130896;28;20113;-67
2022/07/06 02:25:50;;;;;;;3.25;1.67;;;16.20;97.30;;;;;;4130122;28;20485;-67
2022/07/06 02:27:51;;;;;;;2.30;1.50;;;16.20;96.80;;;;;;4130833;28;20142;-67
2022/07/06 02:29:52;;;;;;;2.50;1.63;;;16.20;98.80;;;;;;4130649;28;20030;-67
2022/07/06 02:31:52;;;;;;;2.33;1.60;;;16.20;97.90;;;;;;4129609;28;20058;-67
2022/07/06 02:33:53;;;;;;;1.52;1.10;;;16.10;97.50;;;;;;4130568;28;20038;-67
2022/07/06 02:35:53;;;;;;;1.77;1.42;;;16.10;97.00;;;;;;4130203;28;20113;-67
2022/07/06 02:37:54;;;;;;;1.67;1.25;;;16.10;97.20;;;;;;4130726;28;20026;-67
2022/07/06 02:39:55;;;;;;;1.67;1.20;;;16.10;97.10;;;;;;4130660;28;20030;-67
2022/07/06 02:41:56;;;;;;;1.77;1.33;;;16.00;96.90;;;;;;4129229;28;20034;-67
2022/07/06 02:43:56;;;;;;;2.33;1.40;;;16.00;97.70;;;;;;4129336;28;20046;-67
2022/07/06 02:45:57;;;;;;;1.95;1.40;;;16.00;97.40;;;;;;4130379;28;20110;-67
2022/07/06 02:47:57;;;;;;;1.88;1.65;;;16.00;97.60;;;;;;4130740;28;20441;-67
2022/07/06 02:49:58;;;;;;;2.25;1.70;;;16.00;98.20;;;;;;4130343;28;20034;-67
2022/07/06 02:51:59;;;;;;;1.65;1.25;;;15.90;97.40;;;;;;4129433;28;20129;-67
2022/07/06 02:53:59;;;;;;;3.10;1.40;;;15.90;97.30;;;;;;4130141;28;20053;-67
2022/07/06 02:56:00;;;;;;;2.53;1.58;;;15.90;97.50;;;;;;4129798;28;20038;-66
2022/07/06 02:58:00;;;;;;;3.38;1.73;;;15.90;97.90;;;;;;4130342;28;20094;-67
2022/07/06 03:00:01;;;;;;;1.63;1.42;;;15.80;98.40;;;;;;4129554;28;20050;-66
2022/07/06 03:02:06;;;;;;;3.85;2.00;;;15.80;98.30;;;;;;4129338;28;20486;-67
2022/07/06 03:04:06;;;;;;;2.92;1.75;;;15.80;98.60;;;;;;4129739;28;20445;-67
2022/07/06 03:06:07;;;;;;;4.75;2.00;;;15.90;99.20;;;;;;4129889;28;20030;-67
2022/07/06 03:08:07;;;;;;;1.83;1.50;;;15.80;99.00;;;;;;4130177;28;20061;-67
2022/07/06 03:10:08;;;;;;;2.83;1.80;;;15.80;99.00;;;;;;4129061;28;20149;-68
2022/07/06 03:12:09;;;;;;;3.58;1.75;;;15.80;99.40;;;;;;4129804;28;20034;-67
2022/07/06 03:14:09;;;;;;;3.70;2.17;;;15.70;99.40;;;;;;4129557;28;20097;-65
2022/07/06 03:16:10;;;;;;;2.80;1.80;;;15.70;99.90;;;;;;4129497;28;20062;-66
2022/07/06 03:18:11;;;;;;;3.42;1.92;;;15.70;99.90;;;;;;4129994;28;20097;-66
2022/07/06 03:20:11;;;;;;;2.63;1.77;;;15.70;99.90;;;;;;4127881;28;20169;-67
2022/07/06 03:22:12;;;;;;;3.40;1.58;;;15.80;99.90;;;;;;4129483;28;20453;-66
2022/07/06 03:24:12;;;;;;;2.53;1.70;;;15.80;99.90;;;;;;4129943;28;20038;-67
2022/07/06 03:26:13;;;;;;;3.22;1.77;;;15.80;99.90;;;;;;4129493;28;20038;-67
2022/07/06 03:28:14;;;;;;;3.17;1.50;;;15.80;99.90;;;;;;4129704;28;20033;-67
2022/07/06 03:30:14;;;;;;;2.33;1.90;;;15.80;99.90;;;;;;4128411;28;20034;-67
2022/07/06 03:32:15;;;;;;;1.52;1.40;;;15.80;99.90;;;;;;4129635;28;20092;-66
2022/07/06 03:34:15;;;;;;;3.53;1.58;;;15.80;99.90;;;;;;4129950;28;20072;-67
2022/07/06 03:36:16;;;;;;;5.00;1.92;;;15.80;99.90;;;;;;4129159;28;20039;-67
2022/07/06 03:38:17;;;;;;;2.53;1.70;;;15.80;99.90;;;;;;4129671;28;20038;-67
2022/07/06 03:40:17;;;;;;;3.25;1.85;;;15.90;99.90;;;;;;4128299;28;20042;-68
2022/07/06 03:42:18;;;;;;;2.85;1.80;;;15.90;99.90;;;;;;4128409;28;20050;-67
2022/07/06 03:44:18;;;;;;;3.13;1.92;;;15.90;99.90;;;;;;4129608;28;20143;-67
2022/07/06 03:46:19;;;;;;;2.83;1.70;;;15.90;99.90;;;;;;4128887;28;20586;-67
2022/07/06 03:48:20;;;;;;;2.05;1.60;;;15.90;99.90;;;;;;4129686;28;20042;-67
2022/07/06 03:50:21;;;;;;;2.33;1.63;;;15.90;99.90;;;;;;4127184;28;20495;-67
2022/07/06 03:52:22;;;;;;;2.13;1.40;;;15.90;99.90;;;;;;4129265;28;20054;-67
2022/07/06 03:54:22;;;;;;;5.00;2.53;;;15.90;99.90;;;;;;4129033;28;20039;-67
2022/07/06 03:56:29;;;;;;;2.47;1.75;;;15.90;99.90;;;;;;4128661;28;20061;-67
2022/07/06 03:58:30;;;;;;;4.18;2.50;;;15.90;99.90;;;;;;4129219;28;20040;-67
2022/07/06 04:00:30;;;;;;;3.95;2.17;;;15.90;99.90;;;;;;4127102;28;20069;-68
2022/07/06 04:02:31;;;;;;;3.85;2.17;;;15.90;99.90;;;;;;4128581;28;20092;-67
2022/07/06 04:04:33;;;;;;;2.85;2.17;;;15.90;99.90;;;;;;4128231;28;20058;-67
2022/07/06 04:06:34;;;;;;;5.43;2.55;;;15.90;99.90;;;;;;4143515;28;20033;-67
2022/07/06 04:08:35;;;;;;;6.40;2.97;;;15.90;99.90;;;;;;4129700;28;20037;-67
2022/07/06 04:10:35;;;;;;;5.43;2.85;;;15.90;99.90;;;;;;4128114;28;20398;-68
2022/07/06 04:12:43;;;;;;;5.03;2.85;;;15.80;99.90;;;;;;4129352;28;20394;-67
2022/07/06 04:14:44;;;;;;;4.50;2.35;;;15.80;99.90;;;;;;4128702;28;20517;-67
2022/07/06 04:16:44;;;;;;;3.78;2.17;;;15.80;99.90;;;;;;4128539;28;20045;-67
2022/07/06 04:18:45;;;;;;;3.83;2.30;;;15.80;99.90;;;;;;4129390;28;20054;-67
2022/07/06 04:20:46;;;;;;;4.63;2.33;;;15.70;99.90;;;;;;4127008;28;20042;-67
2022/07/06 04:22:46;;;;;;;5.57;2.55;;;15.70;99.90;;;;;;4123127;28;20107;-67
2022/07/06 04:24:47;;;;;;;5.03;2.58;;;15.70;99.90;;;;;;4120240;28;20031;-67
2022/07/06 04:26:48;;;;;;;5.70;3.30;;;15.70;99.90;;;;;;4122824;28;20443;-67
2022/07/06 04:28:48;;;;;;;5.20;2.70;;;15.60;99.90;;;;;;4120569;28;20030;-67
2022/07/06 04:30:49;;;;;;;4.28;2.45;;;15.60;99.90;;;;;;4121432;28;20027;-67
2022/07/06 04:32:49;;;;;;;3.67;2.10;;;15.70;99.90;;;;;;4124578;28;20117;-67
2022/07/06 04:34:50;;;;;;;4.18;2.75;;;15.70;99.90;;;;;;4120039;28;20034;-68
2022/07/06 04:36:50;;;;;;;6.97;2.60;;;15.80;99.90;;;;;;4126185;28;20043;-67
2022/07/06 04:38:51;;;;;;;3.70;2.30;;;15.80;99.90;;;;;;4120640;28;20460;-68
2022/07/06 04:40:51;;;;;;;4.57;2.50;;;15.80;99.90;;;;;;4121126;28;20030;-67
2022/07/06 04:42:52;;;;;;;3.80;2.28;;;15.80;99.90;;;;;;4123828;28;20042;-67
2022/07/06 04:44:53;;;;;;;9.13;2.42;;;15.80;99.90;;;;;;4120262;28;20046;-67
2022/07/06 04:46:54;;;;;;;4.65;2.92;;;15.80;99.90;;;;;;4120471;28;20034;-67
2022/07/06 04:48:54;;;;;;;10.20;3.42;;;15.80;99.90;;;;;;4123724;28;20031;-67
2022/07/06 04:50:55;;;;;;;6.93;2.83;;;15.80;99.90;;;;;;4122386;28;20098;-67
2022/07/06 04:52:56;;;;;;;4.28;2.45;;;15.90;99.90;;;;;;4127130;28;20089;-67
2022/07/06 04:54:56;;;;;;;6.68;2.55;;;15.80;99.90;;;;;;4128960;28;20041;-67
2022/07/06 04:56:57;;;;;;;4.15;2.72;;;15.80;99.90;;;;;;4128078;28;20047;-67
2022/07/06 04:58:58;;;;;;;4.07;2.70;;;15.80;99.90;;;;;;4129365;28;20046;-67
2022/07/06 05:00:58;;;;;;;4.32;2.50;;;15.80;99.90;;;;;;4125934;28;20128;-68
2022/07/06 05:02:59;;;;;;;4.07;2.15;;;15.90;99.90;;;;;;4128705;28;20031;-68
2022/07/06 05:04:59;;;;;;;4.65;2.67;;;15.90;99.90;;;;;;4129035;28;20070;-68
2022/07/06 05:07:00;;;;;;;3.97;2.20;;;15.90;99.90;;;;;;4130409;28;20085;-67
2022/07/06 05:09:01;;;;;;;4.97;2.42;;;16.00;99.90;;;;;;4131735;28;20058;-68
2022/07/06 05:11:01;;;;;;;4.50;2.45;;;16.00;99.90;;;;;;4128543;28;20042;-67
2022/07/06 05:13:02;;;;;;;6.63;2.78;;;16.00;99.90;;;;;;4132009;28;21038;-68
2022/07/06 05:15:03;;;;;;;7.07;3.13;;;16.00;99.90;;;;;;4131926;28;20042;-68
2022/07/06 05:17:03;;;;;;;4.63;2.65;;;16.10;99.90;;;;;;4131394;28;20030;-68
2022/07/06 05:19:04;;;;;;;3.95;2.88;;;16.10;99.90;;;;;;4132122;28;20496;-68
2022/07/06 05:21:04;;;;;;;3.55;2.40;;;16.10;99.90;;;;;;4130382;28;20061;-67
2022/07/06 05:23:05;;;;;;;5.20;2.80;;;16.20;99.90;;;;;;4129709;28;20047;-67
2022/07/06 05:25:06;;;;;;;7.68;3.03;;;16.20;99.90;;;;;;4131354;28;20496;-69
2022/07/06 05:27:06;;;;;;;3.45;2.13;;;16.30;99.90;;;;;;4131197;28;20073;-68
2022/07/06 05:29:07;;;;;;;3.67;2.42;;;16.30;99.90;;;;;;4131515;28;20034;-67
2022/07/06 05:31:07;;;;;;;3.40;2.40;;;16.30;99.90;;;;;;4129471;28;20034;-67
2022/07/06 05:33:08;;;;;;;3.95;2.38;;;16.40;99.90;;;;;;4131585;28;20775;-67
2022/07/06 05:35:09;;;;;;;3.40;2.00;;;16.50;99.90;;;;;;4130927;28;20027;-68
2022/07/06 05:37:10;;;;;;;5.43;2.63;;;16.50;99.90;;;;;;4131277;28;20042;-68
2022/07/06 05:39:11;;;;;;;5.05;2.42;;;16.50;99.90;;;;;;4140475;28;20041;-71
2022/07/06 05:41:11;;;;;;;4.90;2.50;;;16.60;99.90;;;;;;4132117;28;20478;-71
2022/07/06 05:43:12;;;;;;;5.05;2.78;;;16.60;99.90;;;;;;4132211;28;20038;-71
2022/07/06 05:45:14;;;;;;;5.32;2.28;;;16.50;99.90;;;;;;4124937;28;20050;-70
2022/07/06 05:51:52;;;;;;;3.50;2.30;;;16.70;99.90;;;;;;4129597;28;20026;-71
2022/07/06 05:53:54;;;;;;;5.50;2.80;;;16.70;99.90;;;;;;4133164;28;20038;-72
2022/07/06 05:55:55;;;;;;;6.33;2.70;;;16.70;99.90;;;;;;4130851;28;20030;-72
2022/07/06 05:57:55;;;;;;;4.53;2.70;;;16.80;99.90;;;;;;4117286;28;20273;-72
2022/07/06 05:59:56;;;;;;;5.72;2.35;;;16.80;99.90;;;;;;4132537;28;20031;-72
2022/07/06 06:01:57;;;;;;;3.53;2.47;;;16.80;99.90;;;;;;4130930;28;20505;-72
2022/07/06 06:03:59;;;;;;;3.53;2.50;;;16.80;99.90;;;;;;4132533;28;20508;-72
2022/07/06 06:06:00;;;;;;;8.02;3.25;;;16.80;99.90;;;;;;4133130;28;20037;-72
2022/07/06 06:08:00;;;;;;;3.25;2.33;;;16.80;99.90;;;;;;4132143;28;20449;-72
2022/07/06 06:10:03;;;;;;;5.30;2.65;;;16.80;99.90;;;;;;4132521;28;20029;-72
2022/07/06 06:12:03;;;;;;;4.07;2.55;;;16.90;99.90;;;;;;4131992;28;20118;-72
2022/07/06 06:14:04;;;;;;;4.00;2.40;;;16.90;99.90;;;;;;4130544;28;20031;-72
2022/07/06 06:16:05;;;;;;;2.22;1.95;;;17.00;99.90;;;;;;4148180;28;20105;-72
2022/07/06 06:18:05;;;;;;;3.53;2.13;;;17.00;99.90;;;;;;4139312;28;20098;-72
2022/07/06 06:20:08;;;;;;;3.42;2.50;;;17.10;99.90;;;;;;4123568;28;20031;-72
2022/07/06 06:22:09;;;;;;;4.13;2.50;;;17.10;99.90;;;;;;4131904;28;20049;-72
2022/07/06 06:24:09;;;;;;;4.82;2.08;;;17.00;99.90;;;;;;4133161;28;20498;-72
2022/07/06 06:26:11;;;;;;;5.55;2.58;;;17.10;99.90;;;;;;4133755;28;20053;-72
2022/07/06 06:28:12;;;;;;;4.05;2.15;;;17.10;99.90;;;;;;4115431;28;20090;-72
2022/07/06 06:30:13;;;;;;;3.53;2.50;;;17.10;99.90;;;;;;4130881;28;20038;-70
2022/07/06 06:32:14;;;;;;;6.15;2.60;;;17.10;99.90;;;;;;4134956;28;20089;-71
2022/07/06 06:34:14;;;;;;;4.72;2.30;;;17.10;99.90;;;;;;4139364;28;20041;-71
2022/07/06 06:36:15;;;;;;;3.33;2.00;;;17.10;99.90;;;;;;4150604;28;20046;-72
2022/07/06 06:38:17;;;;;;;3.00;1.95;;;17.00;99.90;;;;;;4134443;28;20053;-71
2022/07/06 06:40:17;;;;;;;4.47;2.60;;;17.10;99.90;;;;;;4129554;28;20497;-71
2022/07/06 06:42:18;;;;;;;3.13;1.58;;;17.10;99.90;;;;;;4126020;28;20042;-72
2022/07/06 06:44:18;;;;;;;4.85;2.28;;;17.20;99.90;;;;;;4130136;28;20050;-72
2022/07/06 06:46:19;;;;;;;4.88;1.98;;;17.30;99.90;;;;;;4123516;28;20049;-72
2022/07/06 06:48:20;;;;;;;3.40;2.20;;;17.30;99.90;;;;;;4133073;28;20035;-72
2022/07/06 06:50:22;;;;;;;4.00;1.90;;;17.30;99.90;;;;;;4134597;28;20031;-72
2022/07/06 06:52:23;;;;;;;3.95;1.80;;;17.30;99.90;;;;;;4132568;28;20042;-72
2022/07/06 06:54:23;;;;;;;3.35;1.75;;;17.30;99.90;;;;;;4132172;28;20457;-72
2022/07/06 06:56:24;;;;;;;3.38;1.70;;;17.30;99.90;;;;;;4127433;28;20137;-72
2022/07/06 06:58:25;;;;;;;9.35;2.40;;;17.40;99.90;;;;;;4125671;28;20469;-72
2022/07/06 07:00:25;;;;;;;2.70;1.80;;;17.40;99.90;;;;;;4132411;28;20044;-72
2022/07/06 07:02:26;;;;;;;2.53;1.33;;;17.40;99.90;;;;;;4134722;28;20383;-72
2022/07/06 07:04:26;;;;;;;5.38;1.75;;;17.50;99.90;;;;;;4134414;28;20042;-72
2022/07/06 07:06:27;;;;;;;3.47;1.67;;;17.50;99.90;;;;;;4128726;28;20038;-72
2022/07/06 07:08:28;;;;;;;4.80;1.88;;;17.50;99.90;;;;;;4117185;28;20041;-72
2022/07/06 07:10:28;;;;;;;3.95;1.80;;;17.50;99.90;;;;;;4126835;28;20034;-72
2022/07/06 07:12:29;;;;;;;3.97;1.90;;;17.60;99.90;;;;;;4133712;28;20045;-72
2022/07/06 07:14:29;;;;;;;4.78;1.70;;;17.60;99.90;;;;;;4132787;28;20521;-72
2022/07/06 07:16:30;;;;;;;2.72;1.90;;;17.60;99.90;;;;;;4130523;28;20044;-72
2022/07/06 07:18:31;;;;;;;3.95;1.58;;;17.70;99.90;;;;;;4133925;28;20038;-72
2022/07/06 07:20:33;;;;;;;4.72;1.80;;;17.70;99.90;;;;;;4133574;28;20038;-72
2022/07/06 07:22:33;;;;;;;2.05;1.25;;;17.80;99.90;;;;;;4133932;28;20034;-72
2022/07/06 07:24:34;;;;;;;4.18;1.50;;;17.80;99.90;;;;;;4134187;28;20050;-73
2022/07/06 07:26:35;;;;;;;5.30;1.55;;;17.90;99.90;;;;;;4133633;28;20030;-73
2022/07/06 07:28:36;;;;;;;3.17;1.60;;;17.90;99.90;;;;;;4133047;28;20041;-72
2022/07/06 07:30:37;;;;;;;2.72;1.30;;;17.90;99.90;;;;;;4131838;28;20034;-73
2022/07/06 07:32:40;;;;;;;3.08;1.52;;;18.00;99.90;;;;;;4133349;28;20052;-73
2022/07/06 07:34:40;;;;;;;4.57;2.20;;;18.00;99.90;;;;;;4133260;28;20388;-73
2022/07/06 07:36:41;;;;;;;2.83;1.63;;;18.10;99.90;;;;;;4133411;28;20101;-73
2022/07/06 07:38:41;;;;;;;3.08;1.20;;;18.10;99.90;;;;;;4134749;28;20117;-73
2022/07/06 07:40:42;;;;;;;2.58;1.40;;;18.20;99.90;;;;;;4132822;28;20042;-73
2022/07/06 07:42:43;;;;;;;4.75;1.77;;;18.20;99.90;;;;;;4133523;28;20042;-72
2022/07/06 07:44:44;;;;;;;5.00;1.80;;;18.30;99.90;;;;;;4133420;28;20116;-73
2022/07/06 07:46:45;;;;;;;5.03;1.50;;;18.20;99.90;;;;;;4123299;28;20030;-71
2022/07/06 07:48:45;;;;;;;3.60;1.60;;;18.30;99.90;;;;;;4133368;28;20039;-72
2022/07/06 07:50:46;;;;;;;3.47;1.70;;;18.30;99.90;;;;;;4131489;28;20041;-72
2022/07/06 07:52:46;;;;;;;5.38;1.55;;;18.30;99.90;;;;;;4133027;28;20486;-72
2022/07/06 07:54:47;;;;;;;2.60;1.00;;;18.30;99.90;;;;;;4133249;28;20054;-73
2022/07/06 07:56:48;;;;;;;3.47;1.35;;;18.40;99.90;;;;;;4132750;28;20027;-72
2022/07/06 07:58:48;;;;;;;4.28;1.52;;;18.50;99.90;;;;;;4134120;28;20037;-73
2022/07/06 08:00:49;;;;;;;2.17;1.30;;;18.50;99.90;;;;;;4131608;28;20057;-72
2022/07/06 08:02:50;;;;;;;3.28;1.55;;;18.50;99.90;;;;;;4130829;28;20061;-73
2022/07/06 08:04:50;;;;;;;2.85;1.45;;;18.70;99.90;;;;;;4131651;28;20038;-73
2022/07/06 08:06:51;;;;;;;1.45;0.80;;;18.80;99.90;;;;;;4130822;28;20057;-73
2022/07/06 08:08:52;;;;;;;4.60;1.33;;;18.90;99.90;;;;;;4132501;28;20030;-73
2022/07/06 08:10:52;;;;;;;7.35;1.25;;;19.10;99.90;;;;;;4129031;28;20045;-73
2022/07/06 08:12:53;;;;;;;1.98;0.82;;;19.20;99.90;;;;;;4127209;28;20030;-73
2022/07/06 08:14:53;;;;;;;2.80;1.15;;;19.40;99.90;;;;;;4131104;28;20041;-73
2022/07/06 08:16:54;;;;;;;4.20;0.88;;;19.60;99.90;;;;;;4129901;28;20110;-73
2022/07/06 08:18:55;;;;;;;2.65;1.00;;;19.70;99.90;;;;;;4130464;28;20076;-73
2022/07/06 08:20:56;;;;;;;2.92;1.13;;;19.90;99.90;;;;;;4130662;28;20038;-73
2022/07/06 08:22:57;;;;;;;8.15;1.05;;;20.00;99.90;;;;;;4146088;28;20088;-73
2022/07/06 08:24:57;;;;;;;4.32;1.00;;;20.20;99.90;;;;;;4145956;28;20068;-73
2022/07/06 08:26:58;;;;;;;3.15;1.00;;;20.40;99.90;;;;;;4144894;28;20041;-73
2022/07/06 08:28:59;;;;;;;2.08;0.77;;;20.50;99.60;;;;;;4145748;28;20105;-73
2022/07/06 08:30:59;;;;;;;3.00;0.80;;;20.60;98.60;;;;;;4123456;28;20039;-73
2022/07/06 08:33:00;;;;;;;1.20;0.60;;;20.70;97.70;;;;;;4129030;28;20038;-73
2022/07/06 08:35:01;;;;;;;2.90;0.75;;;20.80;98.20;;;;;;4129197;28;20038;-73
2022/07/06 08:37:01;;;;;;;3.95;1.17;;;20.90;97.30;;;;;;4128698;28;20039;-74
2022/07/06 08:39:02;;;;;;;1.90;0.50;;;20.90;97.90;;;;;;4127568;28;20095;-73
2022/07/06 08:41:05;;;;;;;2.00;0.45;;;20.90;96.80;;;;;;4113933;28;20034;-73
2022/07/06 08:43:06;;;;;;;2.63;0.60;;;20.80;96.40;;;;;;4131791;28;20544;-73
2022/07/06 08:45:07;;;;;;;1.70;0.75;;;20.90;96.00;;;;;;4129037;28;20046;-75
2022/07/06 08:47:09;;;;;;;1.40;0.50;;;20.90;96.20;;;;;;4128618;28;20104;-73
2022/07/06 08:49:14;;;;;;;1.60;0.50;;;21.10;96.30;;;;;;4120894;28;20117;-73
2022/07/06 08:51:15;;;;;;;1.15;0.43;;;21.20;96.90;;;;;;4123639;28;20325;-72
2022/07/06 08:53:17;;;;;;;2.45;0.30;;;21.30;95.20;;;;;;4147956;28;20041;-73
2022/07/06 08:55:18;;;;;;;2.70;0.63;;;21.40;95.30;;;;;;4136880;28;20031;-73
2022/07/06 08:57:19;;;;;;;0.85;0.40;;;21.50;93.20;;;;;;4128986;28;20058;-73
2022/07/06 08:59:20;;;;;;;1.13;0.35;;;21.50;94.60;;;;;;4114927;28;20505;-73
2022/07/06 09:01:21;;;;;;;4.65;0.57;;;21.50;92.40;;;;;;4129540;28;20402;-73
2022/07/06 09:03:23;;;;;;;2.15;0.60;;;21.50;93.70;;;;;;4131996;28;20050;-73
2022/07/06 09:05:24;;;;;;;2.05;0.50;;;21.50;91.00;;;;;;4131396;28;20494;-74
2022/07/06 09:07:28;;;;;;;2.40;0.75;;;21.60;92.80;;;;;;4131886;28;20084;-74
2022/07/06 09:09:30;;;;;;;1.23;0.70;;;21.60;94.00;;;;;;4131942;28;20106;-74
2022/07/06 09:11:31;;;;;;;0.50;0.30;;;21.70;92.20;;;;;;4131005;28;20042;-73
2022/07/06 09:13:32;;;;;;;0.90;0.40;;;21.80;90.00;;;;;;4132019;28;20042;-74
2022/07/06 09:15:34;;;;;;;1.83;0.38;;;21.80;88.60;;;;;;4131335;28;20045;-74
2022/07/06 09:17:38;;;;;;;1.88;0.63;;;21.90;90.10;;;;;;4138003;28;20042;-74
2022/07/06 09:19:39;;;;;;;1.33;0.40;;;21.90;85.10;;;;;;4147963;28;20504;-74
2022/07/06 09:21:41;;;;;;;1.27;0.40;;;22.10;89.90;;;;;;4132709;28;20026;-74
2022/07/06 09:23:43;;;;;;;0.85;0.35;;;22.20;90.30;;;;;;4146288;28;20041;-73
2022/07/06 09:25:48;;;;;;;0.70;0.50;;;22.30;90.70;;;;;;4147489;28;20022;-74
2022/07/06 09:27:54;;;;;;;1.92;0.43;;;22.30;89.20;;;;;;4140599;28;20054;-73
2022/07/06 09:29:59;;;;;;;0.65;0.40;;;22.30;88.00;;;;;;4131545;28;20066;-73
2022/07/06 09:32:02;;;;;;;0.70;0.38;;;22.30;85.60;;;;;;4131004;28;20034;-73
2022/07/06 09:34:09;;;;;;;2.90;0.85;;;22.40;88.90;;;;;;4131813;28;20068;-73
2022/07/06 09:36:10;;;;;;;2.15;0.68;;;22.40;87.40;;;;;;4131405;28;20049;-73
2022/07/06 09:38:14;;;;;;;1.38;0.50;;;22.40;86.10;;;;;;4128710;28;20038;-73
2022/07/06 09:40:18;;;;;;;1.15;0.47;;;22.30;86.60;;;;;;4116365;28;20030;-73
2022/07/06 09:42:25;;;;;;;0.88;0.38;;;22.40;85.80;;;;;;4130386;28;20038;-73
2022/07/06 09:44:33;;;;;;;2.75;0.30;;;22.30;87.00;;;;;;4131491;28;20149;-74
2022/07/06 09:46:41;;;;;;;1.13;0.30;;;22.50;82.70;;;;;;4130898;28;20038;-74
2022/07/06 09:48:42;;;;;;;0.50;0.22;;;22.40;81.30;;;;;;4142397;28;20033;-74
2022/07/06 09:50:45;;;;;;;12.65;1.27;;;22.40;79.50;;;;;;4122868;28;20065;-74
2022/07/06 09:52:55;;;;;;;1.23;0.50;;;22.30;84.30;;;;;;4132391;28;20046;-74
2022/07/06 09:54:56;;;;;;;0.95;0.50;;;22.40;82.90;;;;;;4147411;28;20525;-74
2022/07/06 09:56:57;;;;;;;2.05;0.50;;;22.40;81.70;;;;;;4147130;28;20120;-74
2022/07/06 09:58:57;;;;;;;2.28;0.50;;;22.40;86.80;;;;;;4135872;28;20029;-74
2022/07/06 10:00:58;;;;;;;0.98;0.40;;;22.40;83.20;;;;;;4127638;28;20438;-74
2022/07/06 10:03:00;;;;;;;1.70;0.45;;;22.50;83.00;;;;;;4130600;28;20548;-74
2022/07/06 10:05:02;;;;;;;4.55;0.73;;;22.60;87.90;;;;;;4131315;28;20054;-74
2022/07/06 10:07:03;;;;;;;2.65;0.60;;;22.40;90.60;;;;;;4130445;28;20039;-74
2022/07/06 10:09:07;;;;;;;1.58;0.70;;;22.40;88.20;;;;;;4141657;28;20038;-74
2022/07/06 10:11:11;;;;;;;3.03;0.88;;;22.30;87.80;;;;;;4136255;28;20038;-74
2022/07/06 10:13:13;;;;;;;1.20;0.47;;;22.40;85.20;;;;;;4131086;28;20054;-74
2022/07/06 10:15:14;;;;;;;2.47;0.60;;;22.30;87.40;;;;;;4130260;28;20034;-75
2022/07/06 10:17:18;;;;;;;1.85;0.70;;;22.20;86.00;;;;;;4130659;28;20060;-73
2022/07/06 10:19:21;;;;;;;1.77;0.45;;;22.10;88.60;;;;;;4130496;28;20049;-74
2022/07/06 10:21:22;;;;;;;0.93;0.30;;;22.00;90.00;;;;;;4127647;28;20038;-74
2022/07/06 10:23:24;;;;;;;2.33;0.70;;;22.00;90.70;;;;;;4130870;28;20050;-74
2022/07/06 10:25:26;;;;;;;1.67;0.63;;;22.00;88.60;;;;;;4130537;28;20153;-73
2022/07/06 10:27:28;;;;;;;2.17;0.47;;;22.00;89.90;;;;;;4113696;28;20038;-73
2022/07/06 10:29:30;;;;;;;1.48;0.50;;;22.10;90.00;;;;;;4141341;28;20045;-74
2022/07/06 10:31:32;;;;;;;2.40;0.40;;;22.10;88.70;;;;;;4130747;28;20375;-74
2022/07/06 10:33:33;;;;;;;1.30;0.63;;;22.20;87.10;;;;;;4130735;28;20521;-74
2022/07/06 10:35:34;;;;;;;3.13;0.45;;;22.20;88.00;;;;;;4130034;28;20041;-74